createdAt,value
2023-04-03T00:01:19.556Z,7.25
2023-04-03T00:03:47.963Z,7.28
2023-04-03T00:06:17.640Z,7.29
2023-04-03T00:08:46.129Z,7.12
2023-04-03T00:11:14.637Z,7.22
2023-04-03T00:13:43.010Z,7.20
2023-04-03T00:16:12.445Z,7.02
2023-04-03T00:18:41.919Z,7.14
2023-04-03T00:21:11.873Z,7.10
2023-04-03T00:23:41.410Z,7.10
2023-04-03T00:26:09.648Z,7.06
2023-04-03T00:28:37.869Z,7.05
2023-04-03T00:31:06.417Z,6.44
2023-04-03T00:33:34.764Z,6.99
2023-04-03T00:36:08.813Z,6.98
2023-04-03T00:38:37.413Z,6.84
2023-04-03T00:41:07.588Z,6.83
2023-04-03T00:43:36.258Z,6.22
2023-04-03T00:46:04.651Z,6.83
2023-04-03T00:48:36.933Z,6.87
2023-04-03T00:51:07.777Z,6.74
2023-04-03T00:53:39.630Z,6.44
2023-04-03T00:56:12.570Z,6.83
2023-04-03T00:58:46.434Z,6.82
2023-04-03T01:01:21.220Z,6.83
2023-04-03T01:03:49.371Z,6.80
2023-04-03T01:06:19.435Z,6.74
2023-04-03T01:08:50.773Z,6.70
2023-04-03T01:11:22.079Z,6.66
2023-04-03T01:13:50.485Z,6.46
2023-04-03T01:16:18.753Z,6.60
2023-04-03T01:18:47.922Z,6.24
2023-04-03T01:22:06.997Z,6.41
2023-04-03T01:24:40.154Z,6.53
2023-04-03T01:27:13.194Z,6.34
2023-04-03T01:29:44.623Z,6.36
2023-04-03T01:32:14.265Z,6.46
2023-04-03T01:34:42.373Z,6.48
2023-04-03T01:37:10.527Z,6.46
2023-04-03T01:39:38.597Z,6.35
2023-04-03T01:42:06.889Z,6.22
2023-04-03T01:44:35.160Z,6.43
2023-04-03T01:47:03.286Z,6.43
2023-04-03T01:49:32.826Z,6.18
2023-04-03T01:52:01.099Z,5.66
2023-04-03T01:54:29.250Z,6.36
2023-04-03T01:56:57.387Z,6.29
2023-04-03T01:59:25.513Z,5.90
2023-04-03T02:01:53.671Z,6.29
2023-04-03T02:04:21.916Z,6.16
2023-04-03T02:06:51.496Z,6.25
2023-04-03T02:09:19.671Z,6.21
2023-04-03T02:11:47.756Z,6.19
2023-04-03T02:14:15.868Z,5.36
2023-04-03T02:16:44.120Z,6.11
2023-04-03T02:19:12.217Z,5.98
2023-04-03T02:21:40.405Z,6.12
2023-04-03T02:24:10.113Z,5.77
2023-04-03T02:26:38.286Z,6.06
2023-04-03T02:29:06.967Z,5.72
2023-04-03T02:31:35.235Z,5.54
2023-04-03T02:34:03.466Z,5.94
2023-04-03T02:36:32.923Z,5.87
2023-04-03T02:39:01.231Z,5.90
2023-04-03T02:41:35.978Z,5.87
2023-04-03T02:44:04.503Z,5.82
2023-04-03T02:46:33.193Z,5.86
2023-04-03T02:49:01.571Z,5.87
2023-04-03T02:51:29.740Z,5.88
2023-04-03T02:53:57.863Z,5.67
2023-04-03T02:56:26.075Z,5.79
2023-04-03T02:58:55.663Z,5.81
2023-04-03T03:01:23.892Z,5.73
2023-04-03T03:03:52.044Z,5.76
2023-04-03T03:06:20.486Z,5.79
2023-04-03T03:08:48.619Z,5.79
2023-04-03T03:11:16.881Z,5.62
2023-04-03T03:13:45.084Z,5.77
2023-04-03T03:16:14.621Z,5.73
2023-04-03T03:18:42.838Z,5.69
2023-04-03T03:21:12.060Z,5.63
2023-04-03T03:23:40.200Z,5.67
2023-04-03T03:26:11.203Z,5.69
2023-04-03T03:28:40.897Z,5.69
2023-04-03T03:31:11.242Z,5.73
2023-04-03T03:33:41.189Z,5.61
2023-04-03T03:36:09.864Z,5.73
2023-04-03T03:38:38.119Z,5.63
2023-04-03T03:41:06.583Z,5.75
2023-04-03T03:43:34.771Z,5.73
2023-04-03T03:46:02.857Z,5.74
2023-04-03T03:48:31.093Z,5.79
2023-04-03T03:51:00.681Z,5.83
2023-04-03T03:53:28.872Z,5.82
2023-04-03T03:55:57.115Z,5.86
2023-04-03T03:58:25.293Z,5.89
2023-04-03T04:00:53.436Z,5.88
2023-04-03T04:03:22.218Z,5.89
2023-04-03T04:05:50.477Z,5.93
2023-04-03T04:08:20.092Z,5.92
2023-04-03T04:10:48.377Z,5.95
2023-04-03T04:13:16.560Z,5.82
2023-04-03T04:15:44.780Z,5.90
2023-04-03T04:18:13.037Z,5.87
2023-04-03T04:20:41.216Z,5.81
2023-04-03T04:23:09.366Z,5.92
2023-04-03T04:25:39.234Z,5.93
2023-04-03T04:28:08.047Z,5.95
2023-04-03T04:30:36.255Z,5.97
2023-04-03T04:33:04.705Z,5.93
2023-04-03T04:35:33.006Z,5.87
2023-04-03T04:38:01.713Z,5.59
2023-04-03T04:40:29.885Z,5.90
2023-04-03T04:42:59.403Z,5.87
2023-04-03T04:45:27.601Z,5.56
2023-04-03T04:47:57.895Z,5.83
2023-04-03T04:50:26.073Z,5.77
2023-04-03T04:52:54.237Z,5.76
2023-04-03T04:55:22.405Z,5.59
2023-04-03T04:57:50.590Z,5.82
2023-04-03T05:00:21.185Z,5.76
2023-04-03T05:02:49.413Z,5.78
2023-04-03T05:05:17.700Z,5.53
2023-04-03T05:07:46.049Z,5.78
2023-04-03T05:10:14.289Z,5.79
2023-04-03T05:12:42.422Z,5.79
2023-04-03T05:15:13.432Z,5.85
2023-04-03T05:17:43.115Z,5.82
2023-04-03T05:20:12.425Z,5.83
2023-04-03T05:22:40.770Z,5.78
2023-04-03T05:25:09.721Z,6.20
2023-04-03T05:27:37.969Z,6.18
2023-04-03T05:30:07.069Z,6.12
2023-04-03T05:32:35.472Z,5.87
2023-04-03T05:35:05.463Z,6.07
2023-04-03T05:37:33.735Z,5.93
2023-04-03T05:40:02.051Z,6.06
2023-04-03T05:42:30.800Z,6.03
2023-04-03T05:44:59.087Z,6.06
2023-04-03T05:47:27.378Z,6.10
2023-04-03T05:49:55.616Z,5.40
2023-04-03T05:52:28.700Z,6.15
2023-04-03T05:54:56.987Z,6.19
2023-04-03T05:57:25.452Z,6.25
2023-04-03T05:59:53.670Z,6.22
2023-04-03T06:02:24.156Z,6.20
2023-04-03T06:04:53.155Z,6.26
2023-04-03T06:07:23.667Z,6.10
2023-04-03T06:09:54.093Z,6.28
2023-04-03T06:12:22.723Z,6.28
2023-04-03T06:14:51.218Z,6.28
2023-04-03T06:17:20.252Z,5.80
2023-04-03T06:19:48.782Z,6.24
2023-04-03T06:22:17.168Z,3.96
2023-04-03T06:24:45.864Z,6.08
2023-04-03T06:27:15.962Z,6.01
2023-04-03T06:29:44.432Z,6.09
2023-04-03T06:32:12.687Z,6.26
2023-04-03T06:34:40.971Z,6.15
2023-04-03T06:37:09.309Z,6.18
2023-04-03T06:39:37.522Z,6.19
2023-04-03T06:42:05.758Z,6.33
2023-04-03T06:44:36.066Z,6.27
2023-04-03T06:47:04.341Z,6.12
2023-04-03T06:49:33.025Z,6.29
2023-04-03T06:52:02.650Z,6.40
2023-04-03T06:54:31.005Z,6.44
2023-04-03T06:56:59.053Z,6.72
2023-04-03T06:59:27.048Z,6.98
2023-04-03T07:01:56.750Z,6.97
2023-04-03T07:04:25.073Z,6.76
2023-04-03T07:06:53.542Z,6.65
2023-04-03T07:09:22.730Z,6.62
2023-04-03T07:11:51.180Z,6.54
2023-04-03T07:14:19.390Z,6.28
2023-04-03T07:16:47.726Z,6.29
2023-04-03T07:19:19.019Z,6.39
2023-04-03T07:21:47.247Z,6.33
2023-04-03T07:24:16.743Z,6.26
2023-04-03T07:26:46.319Z,6.18
2023-04-03T07:29:15.810Z,6.06
2023-04-03T07:31:44.370Z,5.80
2023-04-03T07:34:12.761Z,6.21
2023-04-03T07:36:42.446Z,6.26
2023-04-03T07:39:10.660Z,6.26
2023-04-03T07:41:39.352Z,6.16
2023-04-03T07:44:10.830Z,6.19
2023-04-03T07:46:39.388Z,5.85
2023-04-03T07:49:07.592Z,6.29
2023-04-03T07:51:35.868Z,6.32
2023-04-03T07:54:06.237Z,6.24
2023-04-03T07:56:34.757Z,6.40
2023-04-03T07:59:03.060Z,6.36
2023-04-03T08:01:33.545Z,6.43
2023-04-03T08:04:02.371Z,6.21
2023-04-03T08:06:44.997Z,6.45
2023-04-03T08:09:17.021Z,6.51
2023-04-03T08:11:45.470Z,6.42
2023-04-03T08:14:17.988Z,6.50
2023-04-03T08:16:47.196Z,6.59
2023-04-03T08:19:25.288Z,6.61
2023-04-03T08:21:55.663Z,6.73
2023-04-03T08:24:25.368Z,6.82
2023-04-03T08:26:53.283Z,6.85
2023-04-03T08:29:22.282Z,6.92
2023-04-03T08:31:50.993Z,6.94
2023-04-03T08:34:19.119Z,6.91
2023-04-03T08:36:47.101Z,6.98
2023-04-03T08:39:15.070Z,7.08
2023-04-03T08:41:45.801Z,7.06
2023-04-03T08:44:18.682Z,7.11
2023-04-03T08:46:57.884Z,7.16
2023-04-03T08:49:28.638Z,7.18
2023-04-03T08:51:57.313Z,7.09
2023-04-03T08:54:32.978Z,7.11
2023-04-03T08:57:04.952Z,7.18
2023-04-03T08:59:36.329Z,7.29
2023-04-03T09:02:07.993Z,7.43
2023-04-03T09:04:36.163Z,7.51
2023-04-03T09:07:08.135Z,7.60
2023-04-03T09:09:39.848Z,7.73
2023-04-03T09:12:16.171Z,7.85
2023-04-03T09:14:48.680Z,7.90
2023-04-03T09:17:18.527Z,7.85
2023-04-03T09:19:53.161Z,7.85
2023-04-03T09:22:22.702Z,7.93
2023-04-03T09:24:54.584Z,7.96
2023-04-03T09:27:23.956Z,8.00
2023-04-03T09:29:54.829Z,8.07
2023-04-03T09:32:28.101Z,8.09
2023-04-03T09:34:58.193Z,8.19
2023-04-03T09:37:39.999Z,8.22
2023-04-03T09:40:30.100Z,8.14
2023-04-03T09:43:01.564Z,8.09
2023-04-03T09:45:31.441Z,8.16
2023-04-03T09:48:16.360Z,8.38
2023-04-03T09:50:56.670Z,8.49
2023-04-03T09:53:29.518Z,8.57
2023-04-03T09:55:57.519Z,8.63
2023-04-03T09:58:36.058Z,8.59
2023-04-03T10:01:22.597Z,8.49
2023-04-03T10:04:04.310Z,8.36
2023-04-03T10:06:34.240Z,8.50
2023-04-03T10:09:05.571Z,8.49
2023-04-03T10:11:33.693Z,8.50
2023-04-03T10:14:06.299Z,8.62
2023-04-03T10:16:38.992Z,8.70
2023-04-03T10:19:24.668Z,8.71
2023-04-03T10:21:55.782Z,8.62
2023-04-03T10:24:25.986Z,8.65
2023-04-03T10:26:58.722Z,8.67
2023-04-03T10:29:38.490Z,8.64
2023-04-03T10:32:14.958Z,8.62
2023-04-03T10:34:46.684Z,8.90
2023-04-03T10:37:22.149Z,9.15
2023-04-03T10:39:56.207Z,9.31
2023-04-03T10:42:29.433Z,9.46
2023-04-03T10:45:17.491Z,9.27
2023-04-03T10:47:57.503Z,9.25
2023-04-03T10:50:40.188Z,9.18
2023-04-03T10:53:19.194Z,8.82
2023-04-03T10:55:56.565Z,8.83
2023-04-03T10:58:34.557Z,8.80
2023-04-03T11:01:11.291Z,8.77
2023-04-03T11:03:43.528Z,8.70
2023-04-03T11:06:15.652Z,9.03
2023-04-03T11:08:48.124Z,9.23
2023-04-03T11:11:22.297Z,9.47
2023-04-03T11:13:55.643Z,9.58
2023-04-03T11:16:28.993Z,9.74
2023-04-03T11:19:02.598Z,10.03
2023-04-03T11:21:35.517Z,9.92
2023-04-03T11:24:08.779Z,10.18
2023-04-03T11:26:41.119Z,10.26
2023-04-03T11:29:15.887Z,9.98
2023-04-03T11:32:07.838Z,9.75
2023-04-03T11:34:40.797Z,9.59
2023-04-03T11:37:17.917Z,9.51
2023-04-03T11:39:55.009Z,9.48
2023-04-03T11:42:31.790Z,9.61
2023-04-03T11:45:27.811Z,9.64
2023-04-03T11:48:00.985Z,9.59
2023-04-03T11:50:34.652Z,8.87
2023-04-03T11:53:04.883Z,9.28
2023-04-03T11:56:03.485Z,9.64
2023-04-03T11:58:34.367Z,9.66
2023-04-03T12:01:09.081Z,9.80
2023-04-03T12:04:10.042Z,9.75
2023-04-03T12:06:56.001Z,9.37
2023-04-03T12:09:31.513Z,9.44
2023-04-03T12:12:02.718Z,9.42
2023-04-03T12:14:31.937Z,9.67
2023-04-03T12:17:00.966Z,9.84
2023-04-03T12:22:13.202Z,10.35
2023-04-03T12:24:43.615Z,10.64
2023-04-03T12:27:44.153Z,10.63
2023-04-03T12:30:21.307Z,10.18
2023-04-03T12:33:16.271Z,10.39
2023-04-03T12:35:54.571Z,10.23
2023-04-03T12:38:43.765Z,9.92
2023-04-03T12:41:26.948Z,10.03
2023-04-03T12:44:11.727Z,10.38
2023-04-03T12:46:44.802Z,9.87
2023-04-03T12:49:29.016Z,9.90
2023-04-03T12:51:57.648Z,9.64
2023-04-03T12:54:32.669Z,9.90
2023-04-03T12:57:15.094Z,9.72
2023-04-03T12:59:44.945Z,9.97
2023-04-03T13:02:24.284Z,9.87
2023-04-03T13:04:53.070Z,10.26
2023-04-03T13:07:29.809Z,10.45
2023-04-03T13:10:01.988Z,10.56
2023-04-03T13:12:32.207Z,10.67
2023-04-03T13:15:05.373Z,11.03
2023-04-03T13:17:35.232Z,11.35
2023-04-03T13:20:14.475Z,11.08
2023-04-03T13:22:50.543Z,10.78
2023-04-03T13:25:22.156Z,11.13
2023-04-03T13:27:52.276Z,10.93
2023-04-03T13:30:27.476Z,10.80
2023-04-03T13:32:57.770Z,10.36
2023-04-03T13:35:35.805Z,9.34
2023-04-03T13:38:09.037Z,10.34
2023-04-03T13:40:50.397Z,9.96
2023-04-03T13:43:23.106Z,10.08
2023-04-03T13:46:00.558Z,9.74
2023-04-03T13:48:29.323Z,9.49
2023-04-03T13:51:01.802Z,9.37
2023-04-03T13:53:32.280Z,6.82
2023-04-03T13:56:09.000Z,9.74
2023-04-03T13:58:38.844Z,10.59
2023-04-03T14:01:13.856Z,11.14
2023-04-03T14:03:47.017Z,11.63
2023-04-03T14:06:18.292Z,12.00
2023-04-03T14:08:47.268Z,12.35
2023-04-03T14:11:18.882Z,12.54
2023-04-03T14:13:48.700Z,12.63
2023-04-03T14:16:18.231Z,12.86
2023-04-03T14:18:47.128Z,12.74
2023-04-03T14:21:17.163Z,12.85
2023-04-03T14:23:46.482Z,12.52
2023-04-03T14:26:18.820Z,12.50
2023-04-03T14:28:49.561Z,11.62
2023-04-03T14:31:18.973Z,12.23
2023-04-03T14:33:48.353Z,13.03
2023-04-03T14:36:17.693Z,13.16
2023-04-03T14:38:47.051Z,12.69
2023-04-03T14:41:18.647Z,12.80
2023-04-03T14:43:47.945Z,13.55
2023-04-03T14:46:18.964Z,13.94
2023-04-03T14:48:47.276Z,14.16
2023-04-03T14:51:16.867Z,14.87
2023-04-03T14:53:46.497Z,16.19
2023-04-03T14:56:27.614Z,17.02
2023-04-03T14:58:59.977Z,18.02
2023-04-03T15:01:30.085Z,17.51
2023-04-03T15:03:58.483Z,18.63
2023-04-03T15:06:27.767Z,20.05
2023-04-03T15:08:56.634Z,20.86
2023-04-03T15:11:27.833Z,20.84
2023-04-03T15:13:55.998Z,21.40
2023-04-03T15:16:25.033Z,21.88
2023-04-03T15:18:53.239Z,22.81
2023-04-03T15:21:21.446Z,22.76
2023-04-03T15:23:49.644Z,22.91
2023-04-03T15:26:17.815Z,22.53
2023-04-03T15:28:48.369Z,23.38
2023-04-03T15:31:16.632Z,21.40
2023-04-03T15:33:45.042Z,20.15
2023-04-03T15:36:29.120Z,19.31
2023-04-03T15:39:01.343Z,20.59
2023-04-03T15:41:38.199Z,20.65
2023-04-03T15:44:06.583Z,21.39
2023-04-03T15:46:35.128Z,20.56
2023-04-03T15:49:03.771Z,20.43
2023-04-03T15:51:32.391Z,19.91
2023-04-03T15:54:00.572Z,20.44
2023-04-03T15:56:28.844Z,20.32
2023-04-03T15:58:58.454Z,20.20
2023-04-03T16:01:26.736Z,19.31
2023-04-03T16:03:55.115Z,19.25
2023-04-03T16:06:23.297Z,17.56
2023-04-03T16:08:52.002Z,15.60
2023-04-03T16:11:20.147Z,15.07
2023-04-03T16:13:48.340Z,13.65
2023-04-03T16:16:18.244Z,13.82
2023-04-03T16:18:47.842Z,12.71
2023-04-03T16:21:17.853Z,11.96
2023-04-03T16:23:46.877Z,11.02
2023-04-03T16:26:15.425Z,10.47
2023-04-03T16:28:43.599Z,9.60
2023-04-03T16:31:12.313Z,9.41
2023-04-03T16:33:42.026Z,8.97
2023-04-03T16:36:10.455Z,8.65
2023-04-03T16:38:38.760Z,8.33
2023-04-03T16:41:07.093Z,7.99
2023-04-03T16:43:36.493Z,7.89
2023-04-03T16:46:04.723Z,7.46
2023-04-03T16:48:33.391Z,7.39
2023-04-03T16:51:03.217Z,6.98
2023-04-03T16:53:31.398Z,7.10
2023-04-03T16:55:59.858Z,6.96
2023-04-03T16:58:28.199Z,6.53
2023-04-03T17:00:56.492Z,6.53
2023-04-03T17:03:26.843Z,6.57
2023-04-03T17:05:55.252Z,6.50
2023-04-03T17:08:24.529Z,6.41
2023-04-03T17:10:54.827Z,6.29
2023-04-03T17:13:23.228Z,6.26
2023-04-03T17:15:51.130Z,6.17
2023-04-03T17:18:19.318Z,6.07
2023-04-03T17:20:47.476Z,6.02
2023-04-03T17:23:15.665Z,6.01
2023-04-03T17:25:45.492Z,5.91
2023-04-03T17:28:13.410Z,5.90
2023-04-03T17:30:41.585Z,5.91
2023-04-03T17:33:09.898Z,5.87
2023-04-03T17:35:38.286Z,5.81
2023-04-03T17:38:06.565Z,5.81
2023-04-03T17:40:35.039Z,5.26
2023-04-03T17:43:04.820Z,5.70
2023-04-03T17:45:33.157Z,5.55
2023-04-03T17:48:01.368Z,5.65
2023-04-03T17:50:30.126Z,5.47
2023-04-03T17:52:58.368Z,5.58
2023-04-03T17:55:26.657Z,5.39
2023-04-03T17:57:54.902Z,5.55
2023-04-03T18:00:24.717Z,5.47
2023-04-03T18:02:54.362Z,5.37
2023-04-03T18:05:22.783Z,5.40
2023-04-03T18:07:51.076Z,5.21
2023-04-03T18:10:19.397Z,5.32
2023-04-03T18:12:48.303Z,5.06
2023-04-03T18:15:16.689Z,5.27
2023-04-03T18:17:50.096Z,2.54
2023-04-03T18:20:18.790Z,5.00
2023-04-03T18:22:46.993Z,4.96
2023-04-03T18:25:16.966Z,4.95
2023-04-03T18:27:47.907Z,5.04
2023-04-03T18:30:18.139Z,3.68
2023-04-03T18:32:47.921Z,5.03
2023-04-03T18:35:16.249Z,5.00
2023-04-03T18:37:44.612Z,4.95
2023-04-03T18:40:14.353Z,4.77
2023-04-03T18:42:43.216Z,4.70
2023-04-03T18:45:14.158Z,4.85
2023-04-03T18:47:42.495Z,4.84
2023-04-03T18:50:13.397Z,4.79
2023-04-03T18:52:41.711Z,4.78
2023-04-03T18:55:13.162Z,3.70
2023-04-03T18:57:41.417Z,4.76
2023-04-03T19:00:10.529Z,4.52
2023-04-03T19:02:38.881Z,4.55
2023-04-03T19:05:09.901Z,4.69
2023-04-03T19:07:39.788Z,4.53
2023-04-03T19:10:09.520Z,4.67
2023-04-03T19:12:37.728Z,4.67
2023-04-03T19:15:06.916Z,4.64
2023-04-03T19:17:35.090Z,4.58
2023-04-03T19:20:03.700Z,4.53
2023-04-03T19:22:31.911Z,4.53
2023-04-03T19:25:01.629Z,4.41
2023-04-03T19:27:29.917Z,4.55
2023-04-03T19:29:58.170Z,3.75
2023-04-03T19:32:26.929Z,4.55
2023-04-03T19:34:55.168Z,4.51
2023-04-03T19:37:25.035Z,4.25
2023-04-03T19:39:53.423Z,4.41
2023-04-03T19:42:23.536Z,4.45
2023-04-03T19:44:53.166Z,4.39
2023-04-03T19:47:22.491Z,4.41
2023-04-03T19:49:50.750Z,4.25
2023-04-03T19:52:19.045Z,4.30
2023-04-03T19:54:47.322Z,3.97
2023-04-03T19:57:15.779Z,4.19
2023-04-03T19:59:45.585Z,4.07
2023-04-03T20:02:13.933Z,3.97
2023-04-03T20:04:42.323Z,4.28
2023-04-03T20:07:10.521Z,4.25
2023-04-03T20:09:38.681Z,4.15
2023-04-03T20:12:09.649Z,4.15
2023-04-03T20:14:39.689Z,4.13
2023-04-03T20:17:10.117Z,3.66
2023-04-03T20:19:38.809Z,4.03
2023-04-03T20:22:07.099Z,3.97
2023-04-03T20:24:35.504Z,3.66
2023-04-03T20:27:03.743Z,3.92
2023-04-03T20:29:33.360Z,3.89
2023-04-03T20:32:01.659Z,3.87
2023-04-03T20:34:31.337Z,3.74
2023-04-03T20:36:59.817Z,3.63
2023-04-03T20:39:28.367Z,3.70
2023-04-03T20:41:56.782Z,3.79
2023-04-03T20:44:25.084Z,3.79
2023-04-03T20:46:54.220Z,3.77
2023-04-03T20:49:23.272Z,3.73
2023-04-03T20:51:53.168Z,3.52
2023-04-03T20:54:21.837Z,3.70
2023-04-03T20:56:50.594Z,3.50
2023-04-03T20:59:18.925Z,2.90
2023-04-03T21:01:49.013Z,3.62
2023-04-03T21:04:22.338Z,3.24
2023-04-03T21:07:27.868Z,3.59
2023-04-03T21:10:32.921Z,3.52
2023-04-03T21:13:38.328Z,3.51
2023-04-03T21:16:06.196Z,3.43
2023-04-03T21:19:00.901Z,3.25
2023-04-03T21:21:29.546Z,3.28
2023-04-03T21:23:57.898Z,3.40
2023-04-03T21:26:27.935Z,3.38
2023-04-03T21:28:56.637Z,3.39
2023-04-03T21:31:25.899Z,3.39
2023-04-03T21:33:55.612Z,3.23
2023-04-03T21:36:23.823Z,3.45
2023-04-03T21:38:52.782Z,3.62
2023-04-03T21:41:21.713Z,3.70
2023-04-03T21:43:50.048Z,3.60
2023-04-03T21:46:20.487Z,3.62
2023-04-03T21:48:48.892Z,3.67
2023-04-03T21:51:18.852Z,3.31
2023-04-03T21:53:47.491Z,3.54
2023-04-03T21:56:15.641Z,3.33
2023-04-03T21:58:43.800Z,3.39
2023-04-03T22:01:12.924Z,2.38
2023-04-03T22:03:42.087Z,3.28
2023-04-03T22:06:10.504Z,2.61
2023-04-03T22:08:40.695Z,3.24
2023-04-03T22:11:10.840Z,3.23
2023-04-03T22:13:38.972Z,3.20
2023-04-03T22:16:07.689Z,3.10
2023-04-03T22:18:36.478Z,3.08
2023-04-03T22:21:04.716Z,2.74
2023-04-03T22:23:32.961Z,3.09
2023-04-03T22:26:05.237Z,2.60
2023-04-03T22:28:34.984Z,3.06
2023-04-03T22:31:04.074Z,3.04
2023-04-03T22:33:32.510Z,3.01
2023-04-03T22:36:01.390Z,2.90
2023-04-03T22:38:29.595Z,2.91
2023-04-03T22:40:59.720Z,2.55
2023-04-03T22:43:31.044Z,2.88
2023-04-03T22:46:01.303Z,2.71
2023-04-03T22:48:29.628Z,2.81
2023-04-03T22:50:58.039Z,2.81
2023-04-03T22:53:26.225Z,2.81
2023-04-03T22:55:58.292Z,2.79
2023-04-03T22:58:28.970Z,2.78
2023-04-03T23:01:04.544Z,2.61
2023-04-03T23:03:32.783Z,2.60
2023-04-03T23:06:01.815Z,2.29
2023-04-03T23:08:30.542Z,2.69
2023-04-03T23:10:59.813Z,2.61
2023-04-03T23:13:29.642Z,2.64
2023-04-03T23:15:58.371Z,2.62
2023-04-03T23:18:26.898Z,2.62
2023-04-03T23:20:55.296Z,2.47
2023-04-03T23:23:24.243Z,2.56
2023-04-03T23:25:55.722Z,2.56
2023-04-03T23:28:24.168Z,2.42
2023-04-03T23:30:59.345Z,2.46
2023-04-03T23:33:27.542Z,2.09
2023-04-03T23:35:55.733Z,2.43
2023-04-03T23:38:23.965Z,2.47
2023-04-03T23:40:52.439Z,2.52
2023-04-03T23:43:20.772Z,2.47
2023-04-03T23:45:48.953Z,2.08
2023-04-03T23:48:18.563Z,2.28
2023-04-03T23:50:46.709Z,2.29
2023-04-03T23:53:14.869Z,2.40
2023-04-03T23:55:43.110Z,2.40
2023-04-03T23:58:11.944Z,1.81
